createdAt,value
2017-04-09T00:00:11.815Z,1010.21
2017-04-09T00:00:52.300Z,1010.23
2017-04-09T00:01:32.780Z,1010.28
2017-04-09T00:02:13.290Z,1010.25
2017-04-09T00:02:53.798Z,1010.25
2017-04-09T00:03:34.313Z,1010.27
2017-04-09T00:04:14.870Z,1010.23
2017-04-09T00:04:55.321Z,1010.24
2017-04-09T00:05:35.824Z,1010.22
2017-04-09T00:06:16.331Z,1010.24
2017-04-09T00:06:56.844Z,1010.21
2017-04-09T00:07:37.361Z,1010.21
2017-04-09T00:08:17.883Z,1010.18
2017-04-09T00:08:58.371Z,1010.19
2017-04-09T00:09:38.892Z,1010.13
2017-04-09T00:10:19.395Z,1010.15
2017-04-09T00:10:59.898Z,1010.12
2017-04-09T00:11:40.399Z,1010.2
2017-04-09T00:12:20.925Z,1010.18
2017-04-09T00:13:01.456Z,1010.13
2017-04-09T00:13:41.946Z,1010.11
2017-04-09T00:14:22.472Z,1010.12
2017-04-09T00:15:02.993Z,1010.15
2017-04-09T00:15:43.482Z,1010.11
2017-04-09T00:16:23.980Z,1010.1
2017-04-09T00:17:04.479Z,1010.15
2017-04-09T00:17:44.973Z,1010.14
2017-04-09T00:18:25.470Z,1010.14
2017-04-09T00:19:05.982Z,1010.18
2017-04-09T00:19:46.492Z,1010.09
2017-04-09T00:20:27.020Z,1010.15
2017-04-09T00:21:07.567Z,1010.14
2017-04-09T00:21:48.125Z,1010.17
2017-04-09T00:22:28.614Z,1010.14
2017-04-09T00:23:09.116Z,1010.13
2017-04-09T00:23:49.618Z,1010.15
2017-04-09T00:24:30.113Z,1010.13
2017-04-09T00:25:10.670Z,1010.13
2017-04-09T00:25:51.158Z,1010.09
2017-04-09T00:26:31.673Z,1010.08
2017-04-09T00:27:12.190Z,1010.07
2017-04-09T00:27:52.697Z,1010.1
2017-04-09T00:28:33.229Z,1010.07
2017-04-09T00:29:13.735Z,1010.11
2017-04-09T00:29:54.240Z,1010.09
2017-04-09T00:30:34.723Z,1010.1
2017-04-09T00:31:15.231Z,1010.12
2017-04-09T00:31:55.717Z,1010.11
2017-04-09T00:32:36.213Z,1010.11
2017-04-09T00:33:16.738Z,1010.12
2017-04-09T00:33:57.231Z,1010.09
2017-04-09T00:34:37.742Z,1010.05
2017-04-09T00:35:18.240Z,1010.04
2017-04-09T00:35:58.754Z,1010.08
2017-04-09T00:36:39.291Z,1010.09
2017-04-09T00:37:19.777Z,1010.07
2017-04-09T00:38:00.290Z,1010.1
2017-04-09T00:38:40.799Z,1010.1
2017-04-09T00:39:21.323Z,1010.06
2017-04-09T00:40:01.853Z,1010.07
2017-04-09T00:40:42.318Z,1010.06
2017-04-09T00:41:22.824Z,1010.08
2017-04-09T00:42:03.324Z,1010.08
2017-04-09T00:42:43.845Z,1010.06
2017-04-09T00:43:24.304Z,1010.05
2017-04-09T00:44:04.817Z,1010.03
2017-04-09T00:44:45.310Z,1010.04
2017-04-09T00:45:25.781Z,1010.03
2017-04-09T00:46:06.426Z,1010.11
2017-04-09T00:46:46.922Z,1010.06
2017-04-09T00:47:27.438Z,1010.1
2017-04-09T00:48:07.958Z,1010.07
2017-04-09T00:48:48.457Z,1010.08
2017-04-09T00:49:28.984Z,1010.11
2017-04-09T00:50:09.500Z,1010.1
2017-04-09T00:50:50.020Z,1010.05
2017-04-09T00:51:30.514Z,1010.03
2017-04-09T00:52:11.035Z,1010.05
2017-04-09T00:52:51.520Z,1010.05
2017-04-09T00:53:32.039Z,1010.05
2017-04-09T00:54:12.539Z,1010.05
2017-04-09T00:54:53.030Z,1010.06
2017-04-09T00:55:33.526Z,1010.02
2017-04-09T00:56:14.039Z,1010.03
2017-04-09T00:56:54.552Z,1010.05
2017-04-09T00:57:35.069Z,1010.08
2017-04-09T00:58:15.599Z,1010.07
2017-04-09T00:58:56.055Z,1010.05
2017-04-09T00:59:36.556Z,1010.08
2017-04-09T01:00:17.059Z,1010.04
2017-04-09T01:00:57.564Z,1010.06
2017-04-09T01:01:38.045Z,1010.06
2017-04-09T01:02:18.583Z,1010.11
2017-04-09T01:02:59.067Z,1010.06
2017-04-09T01:03:39.578Z,1010.07
2017-04-09T01:04:20.096Z,1010.07
2017-04-09T01:05:00.610Z,1010.07
2017-04-09T01:05:41.140Z,1010.12
2017-04-09T01:06:21.601Z,1010.07
2017-04-09T01:07:02.201Z,1010.03
2017-04-09T01:07:42.669Z,1010.1
2017-04-09T01:08:23.165Z,1010.09
2017-04-09T01:09:03.677Z,1010
2017-04-09T01:09:44.190Z,1010
2017-04-09T01:10:24.705Z,1010.06
2017-04-09T01:11:05.221Z,1010.03
2017-04-09T01:11:45.738Z,1010.01
2017-04-09T01:12:26.224Z,1010.02
2017-04-09T01:13:06.715Z,1010.07
2017-04-09T01:13:47.245Z,1010.06
2017-04-09T01:14:27.775Z,1010.08
2017-04-09T01:15:08.287Z,1010.02
2017-04-09T01:15:48.804Z,1010.04
2017-04-09T01:16:29.309Z,1010.06
2017-04-09T01:17:09.823Z,1010.06
2017-04-09T01:17:50.336Z,1010.05
2017-04-09T01:18:30.836Z,1010.08
2017-04-09T01:19:11.355Z,1010.06
2017-04-09T01:19:51.886Z,1010.04
2017-04-09T01:20:32.393Z,1010.02
2017-04-09T01:21:12.952Z,1010.09
2017-04-09T01:21:53.411Z,1010.02
2017-04-09T01:22:33.921Z,1010.01
2017-04-09T01:23:14.419Z,1010.03
2017-04-09T01:23:54.899Z,1009.98
2017-04-09T01:24:35.432Z,1010.03
2017-04-09T01:25:15.951Z,1010.06
2017-04-09T01:25:56.459Z,1010.02
2017-04-09T01:26:36.972Z,1010.01
2017-04-09T01:27:17.498Z,1010
2017-04-09T01:27:58.006Z,1009.98
2017-04-09T01:28:38.539Z,1010.02
2017-04-09T01:29:19.009Z,1010
2017-04-09T01:29:59.527Z,1010.01
2017-04-09T01:30:40.045Z,1010
2017-04-09T01:31:20.540Z,1009.97
2017-04-09T01:32:01.046Z,1009.97
2017-04-09T01:32:41.560Z,1009.97
2017-04-09T01:33:22.048Z,1010
2017-04-09T01:34:02.555Z,1009.99
2017-04-09T01:34:43.095Z,1009.99
2017-04-09T01:35:23.551Z,1009.98
2017-04-09T01:36:04.097Z,1010
2017-04-09T01:36:44.574Z,1009.97
2017-04-09T01:37:25.087Z,1009.95
2017-04-09T01:38:05.585Z,1010.02
2017-04-09T01:38:46.049Z,1009.99
2017-04-09T01:39:26.550Z,1010.04
2017-04-09T01:40:07.069Z,1010.04
2017-04-09T01:40:47.587Z,1009.99
2017-04-09T01:41:28.099Z,1010.06
2017-04-09T01:42:08.583Z,1010.03
2017-04-09T01:42:49.096Z,1009.98
2017-04-09T01:43:29.584Z,1010.01
2017-04-09T01:44:10.092Z,1009.98
2017-04-09T01:44:50.581Z,1009.99
2017-04-09T01:45:31.105Z,1009.98
2017-04-09T01:46:11.598Z,1009.97
2017-04-09T01:46:52.102Z,1009.97
2017-04-09T01:47:32.581Z,1009.96
2017-04-09T01:48:13.113Z,1010.01
2017-04-09T01:48:53.585Z,1010.02
2017-04-09T01:49:34.088Z,1009.98
2017-04-09T01:50:14.583Z,1010.03
2017-04-09T01:50:55.072Z,1009.98
2017-04-09T01:51:35.595Z,1009.96
2017-04-09T01:52:16.101Z,1010.04
2017-04-09T01:52:56.619Z,1010.02
2017-04-09T01:53:37.103Z,1010.01
2017-04-09T01:54:17.605Z,1010.07
2017-04-09T01:54:58.088Z,1010.06
2017-04-09T01:55:38.594Z,1010
2017-04-09T01:56:19.103Z,1010.06
2017-04-09T01:56:59.607Z,1010.05
2017-04-09T01:57:40.111Z,1010
2017-04-09T01:58:20.605Z,1010
2017-04-09T01:59:01.117Z,1010.02
2017-04-09T01:59:41.629Z,1010.02
2017-04-09T02:00:22.134Z,1010
2017-04-09T02:01:02.601Z,1009.99
2017-04-09T02:01:43.121Z,1009.98
2017-04-09T02:02:23.599Z,1009.98
2017-04-09T02:03:04.092Z,1009.95
2017-04-09T02:03:44.608Z,1009.98
2017-04-09T02:04:25.130Z,1009.99
2017-04-09T02:05:05.629Z,1009.98
2017-04-09T02:05:46.115Z,1009.96
2017-04-09T02:06:26.622Z,1009.97
2017-04-09T02:07:07.178Z,1009.99
2017-04-09T02:07:47.646Z,1009.96
2017-04-09T02:08:28.138Z,1009.99
2017-04-09T02:09:08.579Z,1010
2017-04-09T02:09:49.037Z,1010
2017-04-09T02:10:29.552Z,1009.96
2017-04-09T02:11:10.077Z,1009.97
2017-04-09T02:11:50.546Z,1009.97
2017-04-09T02:12:31.070Z,1009.97
2017-04-09T02:13:11.582Z,1009.99
2017-04-09T02:13:52.091Z,1010.01
2017-04-09T02:14:32.604Z,1010.04
2017-04-09T02:15:13.110Z,1010.01
2017-04-09T02:15:53.630Z,1010.02
2017-04-09T02:16:34.135Z,1010.03
2017-04-09T02:17:14.673Z,1010.05
2017-04-09T02:17:55.173Z,1010.04
2017-04-09T02:18:35.654Z,1010.04
2017-04-09T02:19:16.175Z,1010.05
2017-04-09T02:19:56.689Z,1010.05
2017-04-09T02:20:37.239Z,1010.04
2017-04-09T02:21:17.717Z,1010.04
2017-04-09T02:21:58.226Z,1010.08
2017-04-09T02:22:38.762Z,1010.07
2017-04-09T02:23:19.269Z,1010.05
2017-04-09T02:23:59.781Z,1010.07
2017-04-09T02:24:40.299Z,1010.07
2017-04-09T02:25:20.801Z,1010.06
2017-04-09T02:26:01.308Z,1010.06
2017-04-09T02:26:41.805Z,1010.1
2017-04-09T02:27:22.304Z,1010.07
2017-04-09T02:28:02.822Z,1010.09
2017-04-09T02:28:43.321Z,1010.06
2017-04-09T02:29:23.826Z,1010.08
2017-04-09T02:30:04.334Z,1010.12
2017-04-09T02:30:44.819Z,1010.09
2017-04-09T02:31:25.320Z,1010.07
2017-04-09T02:32:05.860Z,1010.06
2017-04-09T02:32:46.384Z,1010.08
2017-04-09T02:33:26.892Z,1010.1
2017-04-09T02:34:07.408Z,1010.11
2017-04-09T02:34:47.913Z,1010.14
2017-04-09T02:35:28.435Z,1010.17
2017-04-09T02:36:08.909Z,1010.15
2017-04-09T02:36:49.422Z,1010.15
2017-04-09T02:37:29.927Z,1010.13
2017-04-09T02:38:10.431Z,1010.15
2017-04-09T02:38:50.899Z,1010.13
2017-04-09T02:39:31.457Z,1010.16
2017-04-09T02:40:11.974Z,1010.19
2017-04-09T02:40:52.489Z,1010.17
2017-04-09T02:41:33.005Z,1010.16
2017-04-09T02:42:13.523Z,1010.17
2017-04-09T02:42:54.024Z,1010.18
2017-04-09T02:43:34.529Z,1010.17
2017-04-09T02:44:15.031Z,1010.17
2017-04-09T02:44:55.538Z,1010.14
2017-04-09T02:45:36.020Z,1010.14
2017-04-09T02:46:16.505Z,1010.14
2017-04-09T02:46:57.012Z,1010.15
2017-04-09T02:47:37.526Z,1010.13
2017-04-09T02:48:18.047Z,1010.11
2017-04-09T02:48:58.564Z,1010.12
2017-04-09T02:49:39.056Z,1010.11
2017-04-09T02:50:19.577Z,1010.08
2017-04-09T02:51:00.112Z,1010.09
2017-04-09T02:51:40.584Z,1010.14
2017-04-09T02:52:21.084Z,1010.12
2017-04-09T02:53:01.574Z,1010.14
2017-04-09T02:53:42.107Z,1010.12
2017-04-09T02:54:22.610Z,1010.1
2017-04-09T02:55:03.108Z,1010.09
2017-04-09T02:55:43.619Z,1010.1
2017-04-09T02:56:24.124Z,1010.07
2017-04-09T02:57:04.629Z,1010.09
2017-04-09T02:57:45.141Z,1010.05
2017-04-09T02:58:25.646Z,1010.06
2017-04-09T02:59:06.161Z,1010.08
2017-04-09T02:59:46.670Z,1010.1
2017-04-09T03:00:27.166Z,1010.08
2017-04-09T03:01:07.666Z,1010.1
2017-04-09T03:01:48.180Z,1010.08
2017-04-09T03:02:28.661Z,1010.07
2017-04-09T03:03:09.148Z,1010.07
2017-04-09T03:03:49.652Z,1010.08
2017-04-09T03:04:30.159Z,1010.09
2017-04-09T03:05:10.670Z,1010.06
2017-04-09T03:05:51.186Z,1010.09
2017-04-09T03:06:31.692Z,1010.04
2017-04-09T03:07:12.177Z,1010.06
2017-04-09T03:07:52.671Z,1010.06
2017-04-09T03:08:33.188Z,1010.1
2017-04-09T03:09:13.665Z,1010.05
2017-04-09T03:09:54.177Z,1010.08
2017-04-09T03:10:34.677Z,1010.05
2017-04-09T03:11:15.136Z,1010.02
2017-04-09T03:11:55.656Z,1010.01
2017-04-09T03:12:36.121Z,1010.06
2017-04-09T03:13:17.289Z,1010.05
2017-04-09T03:13:57.191Z,1010.07
2017-04-09T03:14:37.628Z,1010
2017-04-09T03:15:18.134Z,1010.07
2017-04-09T03:15:58.660Z,1010.07
2017-04-09T03:16:39.116Z,1010.06
2017-04-09T03:17:19.625Z,1010.1
2017-04-09T03:18:00.105Z,1010.07
2017-04-09T03:18:40.632Z,1010.09
2017-04-09T03:19:21.134Z,1010.06
2017-04-09T03:20:01.597Z,1010.07
2017-04-09T03:20:42.103Z,1010.06
2017-04-09T03:21:22.610Z,1010.09
2017-04-09T03:22:03.114Z,1010.05
2017-04-09T03:22:43.616Z,1010.03
2017-04-09T03:23:24.133Z,1010.09
2017-04-09T03:24:04.641Z,1010.08
2017-04-09T03:24:45.136Z,1010.09
2017-04-09T03:25:25.639Z,1010.08
2017-04-09T03:26:06.140Z,1010.09
2017-04-09T03:26:46.647Z,1010.12
2017-04-09T03:27:27.169Z,1010.11
2017-04-09T03:28:07.682Z,1010.13
2017-04-09T03:28:48.183Z,1010.08
2017-04-09T03:29:28.695Z,1010.12
2017-04-09T03:30:09.199Z,1010.05
2017-04-09T03:30:49.709Z,1010.05
2017-04-09T03:31:30.226Z,1010.09
2017-04-09T03:32:10.746Z,1010.08
2017-04-09T03:32:51.238Z,1010.08
2017-04-09T03:33:31.760Z,1010.06
2017-04-09T03:34:12.252Z,1010.07
2017-04-09T03:34:52.730Z,1010.07
2017-04-09T03:35:33.269Z,1010.05
2017-04-09T03:36:13.758Z,1010.12
2017-04-09T03:36:54.305Z,1010.1
2017-04-09T03:37:34.779Z,1010.11
2017-04-09T03:38:15.293Z,1010.09
2017-04-09T03:38:55.814Z,1010.1
2017-04-09T03:39:36.311Z,1010.07
2017-04-09T03:40:16.820Z,1010.08
2017-04-09T03:40:57.312Z,1010.1
2017-04-09T03:41:37.819Z,1010.14
2017-04-09T03:42:18.312Z,1010.09
2017-04-09T03:42:58.810Z,1010.07
2017-04-09T03:43:39.318Z,1010.1
2017-04-09T03:44:19.822Z,1010.1
2017-04-09T03:45:00.334Z,1010.1
2017-04-09T03:45:40.863Z,1010.09
2017-04-09T03:46:21.364Z,1010.1
2017-04-09T03:47:01.839Z,1010.16
2017-04-09T03:47:42.368Z,1010.1
2017-04-09T03:48:22.842Z,1010.14
2017-04-09T03:49:03.354Z,1010.11
2017-04-09T03:49:43.851Z,1010.14
2017-04-09T03:50:24.345Z,1010.14
2017-04-09T03:51:04.854Z,1010.08
2017-04-09T03:51:45.367Z,1010.08
2017-04-09T03:52:25.858Z,1010.15
2017-04-09T03:53:06.386Z,1010.12
2017-04-09T03:53:46.885Z,1010.13
2017-04-09T03:54:27.404Z,1010.16
2017-04-09T03:55:07.904Z,1010.17
2017-04-09T03:55:48.360Z,1010.12
2017-04-09T03:56:28.876Z,1010.12
2017-04-09T03:57:09.396Z,1010.18
2017-04-09T03:57:49.905Z,1010.16
2017-04-09T03:58:30.398Z,1010.16
2017-04-09T03:59:10.950Z,1010.14
2017-04-09T03:59:51.405Z,1010.21
2017-04-09T04:00:31.909Z,1010.24
2017-04-09T04:01:12.433Z,1010.18
2017-04-09T04:01:52.937Z,1010.16
2017-04-09T04:02:33.437Z,1010.2
2017-04-09T04:03:13.915Z,1010.17
2017-04-09T04:03:54.435Z,1010.16
2017-04-09T04:04:34.952Z,1010.21
2017-04-09T04:05:15.454Z,1010.16
2017-04-09T04:05:56.044Z,1010.23
2017-04-09T04:06:36.529Z,1010.21
2017-04-09T04:07:17.091Z,1010.18
2017-04-09T04:07:57.546Z,1010.2
2017-04-09T04:08:38.052Z,1010.22
2017-04-09T04:09:18.480Z,1010.21
2017-04-09T04:09:58.993Z,1010.22
2017-04-09T04:10:39.477Z,1010.2
2017-04-09T04:11:19.977Z,1010.19
2017-04-09T04:12:00.491Z,1010.22
2017-04-09T04:12:40.989Z,1010.23
2017-04-09T04:13:21.511Z,1010.24
2017-04-09T04:14:02.029Z,1010.28
2017-04-09T04:14:42.571Z,1010.31
2017-04-09T04:15:23.071Z,1010.27
2017-04-09T04:16:03.599Z,1010.25
2017-04-09T04:16:44.089Z,1010.27
2017-04-09T04:17:24.593Z,1010.3
2017-04-09T04:18:05.088Z,1010.28
2017-04-09T04:18:45.592Z,1010.31
2017-04-09T04:19:26.072Z,1010.31
2017-04-09T04:20:06.531Z,1010.31
2017-04-09T04:20:47.044Z,1010.3
2017-04-09T04:21:27.568Z,1010.29
2017-04-09T04:22:08.064Z,1010.28
2017-04-09T04:22:48.613Z,1010.32
2017-04-09T04:23:29.085Z,1010.36
2017-04-09T04:24:09.557Z,1010.39
2017-04-09T04:24:50.066Z,1010.36
2017-04-09T04:25:30.561Z,1010.38
2017-04-09T04:26:11.049Z,1010.34
2017-04-09T04:26:51.553Z,1010.37
2017-04-09T04:27:32.046Z,1010.32
2017-04-09T04:28:12.595Z,1010.37
2017-04-09T04:28:53.061Z,1010.36
2017-04-09T04:29:33.565Z,1010.34
2017-04-09T04:30:14.076Z,1010.32
2017-04-09T04:30:54.594Z,1010.37
2017-04-09T04:31:35.121Z,1010.35
2017-04-09T04:32:15.622Z,1010.35
2017-04-09T04:32:56.120Z,1010.39
2017-04-09T04:33:36.633Z,1010.37
2017-04-09T04:34:17.135Z,1010.37
2017-04-09T04:34:57.664Z,1010.38
2017-04-09T04:35:38.144Z,1010.35
2017-04-09T04:36:18.618Z,1010.41
2017-04-09T04:36:59.136Z,1010.38
2017-04-09T04:37:39.658Z,1010.39
2017-04-09T04:38:20.185Z,1010.39
2017-04-09T04:39:00.630Z,1010.43
2017-04-09T04:39:41.173Z,1010.45
2017-04-09T04:40:21.624Z,1010.44
2017-04-09T04:41:02.133Z,1010.45
2017-04-09T04:41:42.605Z,1010.44
2017-04-09T04:42:23.106Z,1010.46
2017-04-09T04:43:03.611Z,1010.46
2017-04-09T04:43:44.101Z,1010.44
2017-04-09T04:44:24.626Z,1010.51
2017-04-09T04:45:05.130Z,1010.5
2017-04-09T04:45:45.650Z,1010.53
2017-04-09T04:46:26.131Z,1010.51
2017-04-09T04:47:06.653Z,1010.51
2017-04-09T04:47:47.121Z,1010.5
2017-04-09T04:48:27.617Z,1010.51
2017-04-09T04:49:08.121Z,1010.44
2017-04-09T04:49:48.646Z,1010.51
2017-04-09T04:50:29.108Z,1010.48
2017-04-09T04:51:09.618Z,1010.49
2017-04-09T04:51:50.126Z,1010.57
2017-04-09T04:52:30.643Z,1010.56
2017-04-09T04:53:11.186Z,1010.56
2017-04-09T04:53:51.645Z,1010.59
2017-04-09T04:54:32.152Z,1010.53
2017-04-09T04:55:12.623Z,1010.57
2017-04-09T04:55:53.130Z,1010.51
2017-04-09T04:56:33.643Z,1010.52
2017-04-09T04:57:14.126Z,1010.55
2017-04-09T04:57:54.643Z,1010.56
2017-04-09T04:58:35.146Z,1010.57
2017-04-09T04:59:15.650Z,1010.57
2017-04-09T04:59:56.163Z,1010.53
2017-04-09T05:00:36.676Z,1010.59
2017-04-09T05:01:17.194Z,1010.57
2017-04-09T05:01:57.692Z,1010.55
2017-04-09T05:02:38.227Z,1010.59
2017-04-09T05:03:18.700Z,1010.61
2017-04-09T05:03:59.195Z,1010.58
2017-04-09T05:04:39.696Z,1010.62
2017-04-09T05:05:20.203Z,1010.57
2017-04-09T05:06:00.705Z,1010.62
2017-04-09T05:06:41.210Z,1010.56
2017-04-09T05:07:21.696Z,1010.6
2017-04-09T05:08:02.196Z,1010.6
2017-04-09T05:08:42.695Z,1010.6
2017-04-09T05:09:23.185Z,1010.64
2017-04-09T05:10:03.708Z,1010.66
2017-04-09T05:10:44.197Z,1010.63
2017-04-09T05:11:24.707Z,1010.64
2017-04-09T05:12:05.194Z,1010.7
2017-04-09T05:12:45.701Z,1010.68
2017-04-09T05:13:26.239Z,1010.68
2017-04-09T05:14:06.706Z,1010.74
2017-04-09T05:14:47.214Z,1010.75
2017-04-09T05:15:27.726Z,1010.75
2017-04-09T05:16:08.189Z,1010.76
2017-04-09T05:16:48.694Z,1010.74
2017-04-09T05:17:29.190Z,1010.71
2017-04-09T05:18:09.700Z,1010.71
2017-04-09T05:18:50.245Z,1010.74
2017-04-09T05:19:30.714Z,1010.71
2017-04-09T05:20:11.150Z,1010.73
2017-04-09T05:20:51.701Z,1010.78
2017-04-09T05:21:32.152Z,1010.79
2017-04-09T05:22:12.669Z,1010.78
2017-04-09T05:22:53.187Z,1010.8
2017-04-09T05:23:33.732Z,1010.77
2017-04-09T05:24:14.193Z,1010.79
2017-04-09T05:24:54.719Z,1010.8
2017-04-09T05:25:35.196Z,1010.81
2017-04-09T05:26:15.669Z,1010.75
2017-04-09T05:26:56.189Z,1010.8
2017-04-09T05:27:36.637Z,1010.8
2017-04-09T05:28:17.124Z,1010.79
2017-04-09T05:28:57.643Z,1010.81
2017-04-09T05:29:38.159Z,1010.83
2017-04-09T05:30:18.676Z,1010.83
2017-04-09T05:30:59.157Z,1010.81
2017-04-09T05:31:39.684Z,1010.79
2017-04-09T05:32:20.165Z,1010.77
2017-04-09T05:33:00.676Z,1010.83
2017-04-09T05:33:41.179Z,1010.78
2017-04-09T05:34:21.658Z,1010.82
2017-04-09T05:35:02.160Z,1010.83
2017-04-09T05:35:42.688Z,1010.85
2017-04-09T05:36:23.200Z,1010.85
2017-04-09T05:37:03.689Z,1010.82
2017-04-09T05:37:44.205Z,1010.84
2017-04-09T05:38:24.684Z,1010.86
2017-04-09T05:39:05.169Z,1010.86
2017-04-09T05:39:45.701Z,1010.85
2017-04-09T05:40:26.218Z,1010.84
2017-04-09T05:41:06.721Z,1010.86
2017-04-09T05:41:47.215Z,1010.87
2017-04-09T05:42:27.716Z,1010.88
2017-04-09T05:43:08.241Z,1010.9
2017-04-09T05:43:48.755Z,1010.85
2017-04-09T05:44:29.275Z,1010.92
2017-04-09T05:45:09.760Z,1010.91
2017-04-09T05:45:50.260Z,1010.88
2017-04-09T05:46:30.773Z,1010.93
2017-04-09T05:47:11.289Z,1010.93
2017-04-09T05:47:51.819Z,1010.94
2017-04-09T05:48:32.295Z,1010.93
2017-04-09T05:49:12.764Z,1010.93
2017-04-09T05:49:53.278Z,1010.93
2017-04-09T05:50:33.796Z,1010.93
2017-04-09T05:51:14.278Z,1010.96
2017-04-09T05:51:54.733Z,1010.91
2017-04-09T05:52:35.251Z,1010.97
2017-04-09T05:53:15.769Z,1011.01
2017-04-09T05:53:56.233Z,1010.96
2017-04-09T05:54:36.736Z,1011
2017-04-09T05:55:17.254Z,1010.98
2017-04-09T05:55:57.731Z,1010.98
2017-04-09T05:56:38.251Z,1010.99
2017-04-09T05:57:18.727Z,1011.01
2017-04-09T05:57:59.259Z,1010.98
2017-04-09T05:58:39.735Z,1011.04
2017-04-09T05:59:20.208Z,1010.99
2017-04-09T06:00:00.745Z,1011.01
2017-04-09T06:00:41.184Z,1011
2017-04-09T06:01:21.692Z,1011.01
2017-04-09T06:02:02.193Z,1011.06
2017-04-09T06:02:42.720Z,1011.01
2017-04-09T06:03:23.237Z,1011.05
2017-04-09T06:04:03.728Z,1011.02
2017-04-09T06:04:44.212Z,1011.07
2017-04-09T06:05:24.706Z,1011.02
2017-04-09T06:06:05.245Z,1011.02
2017-04-09T06:06:45.732Z,1011.08
2017-04-09T06:07:26.224Z,1011.1
2017-04-09T06:08:06.742Z,1011.05
2017-04-09T06:08:47.248Z,1011.06
2017-04-09T06:09:27.762Z,1011.06
2017-04-09T06:10:08.265Z,1011.11
2017-04-09T06:10:48.804Z,1011.12
2017-04-09T06:11:29.271Z,1011.18
2017-04-09T06:12:09.783Z,1011.16
2017-04-09T06:12:50.280Z,1011.15
2017-04-09T06:13:30.804Z,1011.14
2017-04-09T06:14:11.292Z,1011.11
2017-04-09T06:14:51.795Z,1011.18
2017-04-09T06:15:32.273Z,1011.16
2017-04-09T06:16:12.795Z,1011.11
2017-04-09T06:16:53.243Z,1011.16
2017-04-09T06:17:33.793Z,1011.2
2017-04-09T06:18:14.301Z,1011.15
2017-04-09T06:18:54.740Z,1011.16
2017-04-09T06:19:35.314Z,1011.15
2017-04-09T06:20:18.377Z,1011.21
2017-04-09T06:20:58.884Z,1011.22
2017-04-09T06:21:40.624Z,1011.21
2017-04-09T06:22:42.799Z,1011.16
2017-04-09T06:23:30.965Z,1011.21
2017-04-09T06:24:11.462Z,1011.21
2017-04-09T06:24:51.928Z,1011.2
2017-04-09T06:25:32.449Z,1011.24
2017-04-09T06:26:12.929Z,1011.23
2017-04-09T06:26:53.409Z,1011.23
2017-04-09T06:27:33.918Z,1011.22
2017-04-09T06:28:14.399Z,1011.23
2017-04-09T06:28:54.919Z,1011.26
2017-04-09T06:29:35.412Z,1011.25
2017-04-09T06:30:15.924Z,1011.25
2017-04-09T06:30:56.404Z,1011.31
2017-04-09T06:31:36.966Z,1011.32
2017-04-09T06:32:17.440Z,1011.31
2017-04-09T06:32:57.900Z,1011.27
2017-04-09T06:33:38.415Z,1011.31
2017-04-09T06:34:18.887Z,1011.28
2017-04-09T06:34:59.423Z,1011.3
2017-04-09T06:35:39.858Z,1011.27
2017-04-09T06:36:20.390Z,1011.31
2017-04-09T06:37:00.862Z,1011.34
2017-04-09T06:37:41.387Z,1011.33
2017-04-09T06:38:21.863Z,1011.34
2017-04-09T06:39:02.332Z,1011.32
2017-04-09T06:39:42.832Z,1011.34
2017-04-09T06:40:23.330Z,1011.33
2017-04-09T06:41:03.806Z,1011.37
2017-04-09T06:41:44.348Z,1011.35
2017-04-09T06:42:24.815Z,1011.31
2017-04-09T06:43:05.310Z,1011.32
2017-04-09T06:43:45.812Z,1011.34
2017-04-09T06:44:26.369Z,1011.35
2017-04-09T06:45:06.833Z,1011.35
2017-04-09T06:45:47.345Z,1011.34
2017-04-09T06:46:27.821Z,1011.36
2017-04-09T06:47:08.311Z,1011.36
2017-04-09T06:47:48.845Z,1011.36
2017-04-09T06:48:29.407Z,1011.39
2017-04-09T06:49:09.937Z,1011.37
2017-04-09T06:49:50.388Z,1011.35
2017-04-09T06:50:30.901Z,1011.31
2017-04-09T06:51:11.391Z,1011.33
2017-04-09T06:51:51.911Z,1011.35
2017-04-09T06:52:32.411Z,1011.36
2017-04-09T06:53:12.921Z,1011.38
2017-04-09T06:53:53.436Z,1011.3
2017-04-09T06:54:33.957Z,1011.37
2017-04-09T06:55:14.418Z,1011.33
2017-04-09T06:55:54.909Z,1011.28
2017-04-09T06:56:35.452Z,1011.31
2017-04-09T06:57:18.753Z,1011.31
2017-04-09T06:57:57.668Z,1011.32
2017-04-09T06:58:38.142Z,1011.33
2017-04-09T06:59:18.667Z,1011.3
2017-04-09T06:59:59.163Z,1011.33
2017-04-09T07:00:39.664Z,1011.34
2017-04-09T07:01:20.150Z,1011.29
2017-04-09T07:02:00.662Z,1011.36
2017-04-09T07:02:41.138Z,1011.31
2017-04-09T07:03:21.609Z,1011.33
2017-04-09T07:04:02.136Z,1011.33
2017-04-09T07:04:42.627Z,1011.36
2017-04-09T07:05:23.143Z,1011.4
2017-04-09T07:06:03.599Z,1011.38
2017-04-09T07:06:44.119Z,1011.4
2017-04-09T07:07:24.573Z,1011.34
2017-04-09T07:08:05.084Z,1011.42
2017-04-09T07:08:45.536Z,1011.41
2017-04-09T07:09:26.026Z,1011.41
2017-04-09T07:10:06.506Z,1011.43
2017-04-09T07:10:47.097Z,1011.4
2017-04-09T07:11:27.557Z,1011.44
2017-04-09T07:12:08.556Z,1011.43
2017-04-09T07:12:49.089Z,1011.44
2017-04-09T07:13:29.618Z,1011.38
2017-04-09T07:14:10.122Z,1011.42
2017-04-09T07:14:51.410Z,1011.44
2017-04-09T07:15:32.020Z,1011.44
2017-04-09T07:16:12.486Z,1011.41
2017-04-09T07:19:38.848Z,1011.4
2017-04-09T07:20:19.868Z,1011.43
2017-04-09T07:21:00.346Z,1011.4
2017-04-09T07:21:40.866Z,1011.42
2017-04-09T07:22:21.343Z,1011.37
2017-04-09T07:23:01.828Z,1011.38
2017-04-09T07:23:42.363Z,1011.4
2017-04-09T07:24:22.839Z,1011.37
2017-04-09T07:25:03.354Z,1011.41
2017-04-09T07:25:43.840Z,1011.39
2017-04-09T07:26:24.330Z,1011.35
2017-04-09T07:27:04.827Z,1011.38
2017-04-09T07:27:45.323Z,1011.39
2017-04-09T07:28:25.865Z,1011.36
2017-04-09T07:29:06.470Z,1011.38
2017-04-09T07:29:46.957Z,1011.44
2017-04-09T07:30:27.805Z,1011.41
2017-04-09T07:31:11.750Z,1011.4
2017-04-09T07:31:52.315Z,1011.42
2017-04-09T07:32:32.724Z,1011.42
2017-04-09T07:33:13.192Z,1011.42
2017-04-09T07:33:53.705Z,1011.39
2017-04-09T07:34:34.320Z,1011.43
2017-04-09T07:35:14.696Z,1011.45
2017-04-09T07:35:55.150Z,1011.4
2017-04-09T07:36:35.744Z,1011.41
2017-04-09T07:37:16.205Z,1011.38
2017-04-09T07:37:56.739Z,1011.43
2017-04-09T07:38:37.185Z,1011.45
2017-04-09T07:39:17.724Z,1011.47
2017-04-09T07:39:58.247Z,1011.45
2017-04-09T07:40:38.894Z,1011.44
2017-04-09T07:41:19.493Z,1011.48
2017-04-09T07:41:59.967Z,1011.49
2017-04-09T07:42:40.499Z,1011.46
2017-04-09T07:43:20.998Z,1011.46
2017-04-09T07:44:01.760Z,1011.49
2017-04-09T07:44:42.028Z,1011.46
2017-04-09T07:45:22.531Z,1011.47
2017-04-09T07:46:03.046Z,1011.48
2017-04-09T07:46:43.523Z,1011.52
2017-04-09T07:47:24.055Z,1011.53
2017-04-09T07:48:04.571Z,1011.47
2017-04-09T07:48:45.047Z,1011.53
2017-04-09T07:49:25.575Z,1011.53
2017-04-09T07:50:06.084Z,1011.52
2017-04-09T07:50:46.688Z,1011.52
2017-04-09T07:51:27.192Z,1011.53
2017-04-09T07:52:07.707Z,1011.51
2017-04-09T07:52:48.185Z,1011.53
2017-04-09T07:53:28.796Z,1011.55
2017-04-09T07:54:09.280Z,1011.51
2017-04-09T07:54:49.751Z,1011.54
2017-04-09T07:55:30.281Z,1011.57
2017-04-09T07:56:10.818Z,1011.54
2017-04-09T07:56:51.328Z,1011.59
2017-04-09T07:57:34.280Z,1011.61
2017-04-09T07:58:14.755Z,1011.56
2017-04-09T07:58:55.275Z,1011.59
2017-04-09T07:59:35.764Z,1011.58
2017-04-09T08:00:16.543Z,1011.54
2017-04-09T08:00:56.922Z,1011.59
2017-04-09T08:01:37.402Z,1011.53
2017-04-09T08:02:17.894Z,1011.55
2017-04-09T08:02:58.400Z,1011.53
2017-04-09T08:03:38.890Z,1011.55
2017-04-09T08:04:19.389Z,1011.6
2017-04-09T08:04:59.942Z,1011.58
2017-04-09T08:05:40.577Z,1011.56
2017-04-09T08:06:21.140Z,1011.56
2017-04-09T08:07:01.631Z,1011.58
2017-04-09T08:07:42.214Z,1011.6
2017-04-09T08:08:22.654Z,1011.57
2017-04-09T08:09:03.152Z,1011.58
2017-04-09T08:09:43.716Z,1011.58
2017-04-09T08:10:24.226Z,1011.56
2017-04-09T08:11:04.697Z,1011.55
2017-04-09T08:11:45.182Z,1011.57
2017-04-09T08:12:25.664Z,1011.57
2017-04-09T08:13:06.195Z,1011.56
2017-04-09T08:13:46.679Z,1011.59
2017-04-09T08:14:27.405Z,1011.59
2017-04-09T08:15:07.893Z,1011.58